Time;durP1;ratioP1;P1;durP2;ratioP2;P2;SDS_P1;SDS_P2;PMS_P1;PMS_P2;Temp;Humidity;BMP_temperature;BMP_pressure;BME280_temperature;BME280_humidity;BME280_pressure;Samples;Min_cycle;Max_cycle;Signal;HPM_P1;HPM_P2
2022/06/25 00:01:58;;;;;;;0.82;0.82;;;16.70;99.90;;;;;;4958842;28;20054;-87
2022/06/25 00:07:08;;;;;;;2.08;0.90;;;16.70;99.90;;;;;;5008840;28;20065;-87
2022/06/25 00:09:34;;;;;;;1.52;0.90;;;16.60;99.90;;;;;;4976268;28;20437;-88
2022/06/25 00:14:44;;;;;;;1.00;1.00;;;16.60;99.90;;;;;;4985610;28;20084;-88
2022/06/25 00:17:10;;;;;;;0.80;0.80;;;16.60;99.90;;;;;;4943751;28;20039;-89
2022/06/25 00:19:36;;;;;;;2.00;0.90;;;16.60;99.90;;;;;;4988877;28;20109;-87
2022/06/25 00:22:02;;;;;;;4.22;1.20;;;16.60;99.90;;;;;;4977360;28;20038;-87
2022/06/25 00:24:28;;;;;;;0.80;0.73;;;16.60;99.90;;;;;;4960311;28;20515;-88
2022/06/25 00:26:54;;;;;;;1.75;1.00;;;16.60;99.90;;;;;;4958050;28;20037;-88
2022/06/25 00:29:20;;;;;;;1.27;0.90;;;16.50;99.90;;;;;;4940439;28;20039;-87
2022/06/25 00:31:45;;;;;;;1.58;0.80;;;16.50;99.90;;;;;;4968905;28;20042;-87
2022/06/25 00:34:11;;;;;;;0.93;0.80;;;16.50;99.90;;;;;;4984877;28;20067;-88
2022/06/25 00:36:37;;;;;;;0.85;0.85;;;16.40;99.90;;;;;;4955640;28;20041;-87
2022/06/25 00:39:03;;;;;;;1.00;1.00;;;16.40;99.90;;;;;;4972066;28;20055;-87
2022/06/25 00:41:29;;;;;;;1.15;0.82;;;16.40;99.90;;;;;;4968441;28;20110;-86
2022/06/25 00:43:56;;;;;;;2.38;0.80;;;16.40;99.90;;;;;;4975508;28;20554;-88
2022/06/25 00:46:22;;;;;;;1.48;1.30;;;16.40;99.90;;;;;;4970168;28;20033;-88
2022/06/25 00:48:47;;;;;;;0.80;0.80;;;16.50;99.90;;;;;;4962955;28;20037;-87
2022/06/25 00:51:15;;;;;;;0.75;0.75;;;16.50;99.90;;;;;;4968618;28;20061;-88
2022/06/25 00:53:45;;;;;;;0.80;0.80;;;16.50;99.90;;;;;;4980253;28;20039;-88
2022/06/25 00:56:13;;;;;;;1.02;0.98;;;16.60;99.90;;;;;;4983280;28;20034;-87
2022/06/25 00:58:44;;;;;;;1.23;1.13;;;16.50;99.90;;;;;;4986841;28;20038;-88
2022/06/25 01:01:12;;;;;;;1.00;0.90;;;16.60;99.90;;;;;;4974117;28;20030;-88
2022/06/25 01:03:39;;;;;;;1.90;0.95;;;16.50;99.90;;;;;;4994135;28;20397;-87
2022/06/25 01:06:06;;;;;;;1.35;1.02;;;16.50;99.90;;;;;;4981645;28;20030;-88
2022/06/25 01:08:33;;;;;;;1.10;1.00;;;16.50;99.90;;;;;;4967431;28;20030;-87
2022/06/25 01:11:00;;;;;;;2.40;0.90;;;16.50;99.90;;;;;;4964053;28;20026;-88
2022/06/25 01:13:26;;;;;;;0.82;0.82;;;16.50;99.90;;;;;;4998519;28;20085;-88
2022/06/25 01:15:53;;;;;;;0.80;0.80;;;16.60;99.90;;;;;;4993180;28;20396;-89
2022/06/25 01:18:19;;;;;;;1.05;0.90;;;16.50;99.90;;;;;;4951727;28;20055;-89
2022/06/25 01:20:46;;;;;;;1.50;0.80;;;16.50;99.90;;;;;;4981206;28;20032;-90
2022/06/25 01:23:13;;;;;;;0.80;0.80;;;16.50;99.90;;;;;;4972023;28;20062;-88
2022/06/25 01:25:40;;;;;;;1.75;0.80;;;16.50;99.90;;;;;;4970182;28;20428;-88
2022/06/25 01:28:06;;;;;;;1.10;0.85;;;16.50;99.90;;;;;;4979788;28;20033;-88
2022/06/25 01:30:33;;;;;;;1.95;1.30;;;16.50;99.90;;;;;;4979409;28;20037;-90
2022/06/25 01:32:59;;;;;;;0.60;0.60;;;16.50;99.90;;;;;;4979037;28;20053;-88
2022/06/25 01:35:25;;;;;;;0.88;0.88;;;16.50;99.90;;;;;;4981425;28;20039;-87
2022/06/25 01:37:52;;;;;;;1.63;0.80;;;16.50;99.90;;;;;;4999092;28;20083;-89
2022/06/25 01:40:18;;;;;;;3.28;1.00;;;16.50;99.90;;;;;;4982211;28;20133;-87
2022/06/25 01:42:59;;;;;;;1.00;0.90;;;16.60;99.90;;;;;;4985448;28;20031;-88
2022/06/25 01:45:27;;;;;;;1.08;0.80;;;16.60;99.90;;;;;;4981097;28;20068;-90
2022/06/25 01:47:52;;;;;;;1.30;1.20;;;16.60;99.90;;;;;;4997038;28;20034;-89
2022/06/25 01:50:18;;;;;;;0.95;0.95;;;16.60;99.90;;;;;;4978861;28;20378;-90
2022/06/25 01:52:46;;;;;;;1.92;1.10;;;16.60;99.90;;;;;;4963476;28;20058;-89
2022/06/25 01:55:13;;;;;;;2.25;1.05;;;16.50;99.90;;;;;;4979855;28;20393;-90
2022/06/25 01:57:41;;;;;;;0.90;0.90;;;16.50;99.90;;;;;;4998433;28;20030;-89
2022/06/25 02:00:13;;;;;;;0.95;0.88;;;16.50;99.90;;;;;;4968038;28;20030;-89
2022/06/25 02:02:46;;;;;;;1.58;1.27;;;16.60;99.90;;;;;;4964017;28;20084;-87
2022/06/25 02:05:25;;;;;;;;;;;;;;;;;;;;;
2022/06/25 02:07:53;;;;;;;1.13;1.00;;;16.60;99.90;;;;;;4975264;28;20037;-87
2022/06/25 02:10:22;;;;;;;0.95;0.95;;;16.60;99.90;;;;;;4945117;28;20045;-87
2022/06/25 02:12:50;;;;;;;0.90;0.90;;;16.60;99.90;;;;;;4975322;28;20456;-87
2022/06/25 02:15:16;;;;;;;1.00;0.88;;;16.60;99.90;;;;;;4976752;28;20034;-87
2022/06/25 02:17:42;;;;;;;1.20;0.90;;;16.60;99.90;;;;;;4944015;28;20043;-88
2022/06/25 02:20:08;;;;;;;0.90;0.90;;;16.60;99.90;;;;;;4975764;28;20030;-88
2022/06/25 02:22:35;;;;;;;1.00;0.90;;;16.60;99.90;;;;;;4976204;28;20038;-87
2022/06/25 02:25:00;;;;;;;1.25;1.15;;;16.60;99.90;;;;;;4960705;28;20420;-87
2022/06/25 02:27:26;;;;;;;0.98;0.98;;;16.60;99.90;;;;;;4962483;28;20042;-90
2022/06/25 02:29:52;;;;;;;0.80;0.80;;;16.60;99.90;;;;;;4963649;28;20037;-89
2022/06/25 02:32:17;;;;;;;1.00;1.00;;;16.60;99.90;;;;;;4977480;28;20053;-89
2022/06/25 02:34:43;;;;;;;0.90;0.90;;;16.60;99.90;;;;;;4963936;28;20045;-89
2022/06/25 02:37:09;;;;;;;1.00;1.00;;;16.60;99.90;;;;;;4963259;28;20083;-88
2022/06/25 02:39:36;;;;;;;1.00;0.93;;;16.60;99.90;;;;;;4979442;28;20385;-88
2022/06/25 02:42:02;;;;;;;0.70;0.70;;;16.60;99.90;;;;;;4960985;28;20034;-88
2022/06/25 02:44:28;;;;;;;1.63;1.17;;;16.60;99.90;;;;;;4941084;28;20051;-88
2022/06/25 02:46:55;;;;;;;1.15;0.80;;;16.60;99.90;;;;;;4969319;28;20044;-86
2022/06/25 02:49:25;;;;;;;1.08;1.05;;;16.70;99.90;;;;;;4979891;28;20040;-87
2022/06/25 02:51:52;;;;;;;0.85;0.85;;;16.60;99.90;;;;;;4981051;28;20108;-89
2022/06/25 02:54:18;;;;;;;0.93;0.93;;;16.70;99.90;;;;;;4959888;28;20062;-87
2022/06/25 02:59:29;;;;;;;2.15;1.35;;;16.60;99.90;;;;;;4964362;28;20125;-89
2022/06/25 03:01:55;;;;;;;1.80;1.70;;;16.60;99.90;;;;;;4957733;28;20100;-87
2022/06/25 03:04:25;;;;;;;1.20;1.10;;;16.60;99.90;;;;;;4980535;28;20204;-87
2022/06/25 03:06:54;;;;;;;1.40;1.30;;;16.60;99.90;;;;;;4990270;28;20631;-87
2022/06/25 03:09:20;;;;;;;1.83;1.42;;;16.60;99.90;;;;;;4948592;28;20054;-86
2022/06/25 03:11:47;;;;;;;1.65;1.55;;;16.50;99.90;;;;;;4968912;28;20444;-86
2022/06/25 03:14:13;;;;;;;1.92;1.42;;;16.50;99.90;;;;;;4960594;28;20404;-87
2022/06/25 03:16:40;;;;;;;3.55;1.52;;;16.50;99.90;;;;;;4987389;28;20036;-87
2022/06/25 03:19:08;;;;;;;2.35;1.52;;;16.50;99.90;;;;;;4994920;28;20034;-89
2022/06/25 03:21:48;;;;;;;1.48;1.33;;;16.50;99.90;;;;;;4983488;28;20036;-88
2022/06/25 03:24:17;;;;;;;1.67;1.58;;;16.50;99.90;;;;;;4975982;28;20030;-88
2022/06/25 03:26:44;;;;;;;1.70;1.58;;;16.50;99.90;;;;;;4956862;28;20038;-88
2022/06/25 03:29:10;;;;;;;1.60;1.50;;;16.50;99.90;;;;;;4962444;28;20125;-88
2022/06/25 03:31:36;;;;;;;1.50;1.40;;;16.50;99.90;;;;;;4982176;28;20114;-89
2022/06/25 03:34:19;;;;;;;1.50;1.40;;;16.50;99.90;;;;;;4977798;28;20037;-87
2022/06/25 03:36:48;;;;;;;1.60;1.50;;;16.50;99.90;;;;;;4988780;28;20058;-89
2022/06/25 03:39:15;;;;;;;1.50;1.40;;;16.50;99.90;;;;;;4978691;28;20034;-87
2022/06/25 03:41:41;;;;;;;1.52;1.42;;;16.50;99.90;;;;;;4973882;28;20505;-87
2022/06/25 03:44:28;;;;;;;2.83;1.45;;;16.50;99.90;;;;;;4978036;28;20103;-88
2022/06/25 03:47:04;;;;;;;1.90;1.70;;;16.50;99.90;;;;;;4973514;28;20074;-88
2022/06/25 03:49:32;;;;;;;1.60;1.50;;;16.50;99.90;;;;;;4958035;28;20031;-88
2022/06/25 03:52:00;;;;;;;1.50;1.40;;;16.50;99.90;;;;;;4970478;28;20041;-89
2022/06/25 03:54:27;;;;;;;2.65;1.55;;;16.40;99.90;;;;;;4969721;28;20109;-88
2022/06/25 03:56:52;;;;;;;1.75;1.60;;;16.50;99.90;;;;;;4963804;28;20169;-87
2022/06/25 03:59:22;;;;;;;2.80;2.03;;;16.50;99.90;;;;;;4974658;28;20030;-88
2022/06/25 04:01:53;;;;;;;4.03;2.20;;;16.50;99.90;;;;;;4958955;28;20585;-85
2022/06/25 04:04:20;;;;;;;7.70;2.15;;;16.40;99.90;;;;;;4950341;28;20036;-87
2022/06/25 04:06:46;;;;;;;2.53;2.30;;;16.40;99.90;;;;;;4988040;28;20026;-87
2022/06/25 04:09:12;;;;;;;3.85;2.08;;;16.50;99.90;;;;;;4962394;28;20037;-86
2022/06/25 04:11:38;;;;;;;2.10;2.00;;;16.40;99.90;;;;;;4979491;28;20034;-88
2022/06/25 04:14:04;;;;;;;3.80;2.10;;;16.40;99.90;;;;;;4974242;28;20049;-88
2022/06/25 04:16:30;;;;;;;2.85;2.20;;;16.50;99.90;;;;;;4983877;28;20033;-86
2022/06/25 04:19:05;;;;;;;2.10;1.90;;;16.50;99.90;;;;;;4975612;28;20432;-88
2022/06/25 04:21:33;;;;;;;2.20;2.10;;;16.50;99.90;;;;;;4955155;28;20034;-90
2022/06/25 04:24:00;;;;;;;4.03;2.58;;;16.50;99.90;;;;;;4966628;28;20031;-86
2022/06/25 04:26:28;;;;;;;2.40;2.20;;;16.60;99.90;;;;;;4977840;28;20663;-89
2022/06/25 04:29:03;;;;;;;1.98;1.70;;;16.50;99.90;;;;;;4974405;28;20041;-87
2022/06/25 04:31:51;;;;;;;2.92;1.98;;;16.60;99.90;;;;;;5004229;28;20122;-89
2022/06/25 04:34:37;;;;;;;;;;;16.60;99.90;;;;;;4970817;28;20042;-88
2022/06/25 04:37:04;;;;;;;5.15;2.15;;;16.60;99.90;;;;;;4974864;28;20000;-88
2022/06/25 04:39:30;;;;;;;3.17;2.45;;;16.70;99.90;;;;;;4975252;28;20022;-88
2022/06/25 04:41:56;;;;;;;3.30;3.00;;;16.60;99.90;;;;;;4974638;28;20396;-89
2022/06/25 04:44:25;;;;;;;4.22;2.20;;;16.60;99.90;;;;;;4951724;28;20109;-86
2022/06/25 04:46:53;;;;;;;3.38;2.38;;;16.70;99.90;;;;;;4972888;28;20827;-86
2022/06/25 04:49:26;;;;;;;2.58;2.38;;;16.60;99.90;;;;;;4958023;28;20034;-87
2022/06/25 04:51:52;;;;;;;2.50;2.30;;;16.60;99.90;;;;;;4982955;28;20093;-87
2022/06/25 04:54:18;;;;;;;5.43;3.67;;;16.60;99.90;;;;;;4962390;28;20038;-85
2022/06/25 04:56:52;;;;;;;5.30;2.65;;;16.60;99.90;;;;;;4964749;28;21253;-85
2022/06/25 04:59:19;;;;;;;2.53;2.33;;;16.60;99.90;;;;;;4964603;28;20082;-88
2022/06/25 05:02:20;;;;;;;2.15;2.00;;;16.70;99.90;;;;;;4956130;28;20031;-87
2022/06/25 05:04:51;;;;;;;2.30;2.10;;;16.70;99.90;;;;;;4961341;28;20086;-87
2022/06/25 05:07:18;;;;;;;3.25;2.35;;;16.70;99.90;;;;;;4994600;28;20069;-85
2022/06/25 05:09:43;;;;;;;2.20;2.10;;;16.70;99.90;;;;;;4945678;28;20644;-86
2022/06/25 05:13:11;;;;;;;2.22;2.03;;;16.60;99.90;;;;;;4978927;28;20041;-87
2022/06/25 05:14:57;;;;;;;;;;;16.70;99.90;;;;;;4997497;28;20096;-87
2022/06/25 05:17:23;;;;;;;4.30;2.10;;;16.60;99.90;;;;;;4979670;28;19921;-88
2022/06/25 05:19:49;;;;;;;2.50;2.30;;;16.70;99.90;;;;;;4978849;28;20027;-88
2022/06/25 05:22:15;;;;;;;2.40;2.20;;;16.70;99.90;;;;;;4950165;28;20573;-87
2022/06/25 05:24:40;;;;;;;2.25;2.05;;;16.70;99.90;;;;;;4947828;28;20041;-86
2022/06/25 05:27:06;;;;;;;3.25;2.13;;;16.70;99.90;;;;;;4955104;28;20058;-86
2022/06/25 05:29:32;;;;;;;2.25;2.05;;;16.70;99.90;;;;;;4938205;28;20201;-86
2022/06/25 05:31:58;;;;;;;3.67;2.42;;;16.80;99.90;;;;;;4984600;28;20049;-89
2022/06/25 05:34:25;;;;;;;2.50;2.30;;;16.90;99.90;;;;;;4979143;28;20401;-87
2022/06/25 05:36:51;;;;;;;2.30;2.10;;;16.90;99.90;;;;;;4979341;28;20043;-86
2022/06/25 05:39:17;;;;;;;2.72;2.47;;;17.00;99.90;;;;;;4946676;28;20041;-87
2022/06/25 05:41:42;;;;;;;2.25;2.15;;;17.10;99.90;;;;;;4959438;28;20129;-87
2022/06/25 05:44:08;;;;;;;2.58;2.35;;;17.10;99.90;;;;;;4945351;28;20032;-88
2022/06/25 05:46:35;;;;;;;3.55;2.70;;;17.10;99.90;;;;;;4990757;28;20388;-88
2022/06/25 05:49:00;;;;;;;10.63;2.90;;;17.20;99.90;;;;;;4985416;28;20077;-89
2022/06/25 05:51:26;;;;;;;2.72;2.53;;;17.30;99.90;;;;;;4962410;28;20034;-87
2022/06/25 05:53:52;;;;;;;6.25;2.85;;;17.30;99.90;;;;;;4942030;28;20043;-88
2022/06/25 05:56:17;;;;;;;5.85;2.90;;;17.40;99.90;;;;;;4949444;28;20053;-86
2022/06/25 05:58:43;;;;;;;2.72;2.50;;;17.40;99.90;;;;;;4939629;28;20038;-86
2022/06/25 06:01:09;;;;;;;6.55;2.88;;;17.60;99.90;;;;;;4958630;28;20033;-86
2022/06/25 06:03:35;;;;;;;3.55;2.58;;;17.70;99.90;;;;;;4964692;28;20666;-87
2022/06/25 06:06:01;;;;;;;3.00;2.40;;;17.80;99.90;;;;;;4971376;28;20027;-88
2022/06/25 06:08:26;;;;;;;2.63;2.42;;;17.90;99.90;;;;;;4974590;28;20031;-87
2022/06/25 06:10:52;;;;;;;2.60;2.40;;;17.90;99.90;;;;;;4967259;28;20044;-87
2022/06/25 06:13:18;;;;;;;2.90;2.70;;;17.90;99.90;;;;;;4980174;28;20041;-85
2022/06/25 06:15:44;;;;;;;4.97;2.85;;;17.90;99.90;;;;;;4965649;28;20416;-88
2022/06/25 06:18:09;;;;;;;3.80;2.95;;;18.00;99.90;;;;;;4949662;28;20719;-86
2022/06/25 06:20:35;;;;;;;3.00;2.80;;;18.00;99.90;;;;;;4975053;28;20099;-87
2022/06/25 06:23:01;;;;;;;4.07;2.80;;;18.00;99.90;;;;;;4973141;28;20531;-87
2022/06/25 06:25:27;;;;;;;2.60;2.40;;;18.10;99.90;;;;;;4978029;28;20496;-88
2022/06/25 06:27:53;;;;;;;4.82;2.65;;;18.20;99.90;;;;;;4973845;28;20062;-87
2022/06/25 06:30:19;;;;;;;2.72;2.53;;;18.20;99.90;;;;;;4973409;28;20121;-86
2022/06/25 06:32:46;;;;;;;2.88;2.67;;;18.10;99.90;;;;;;4951308;28;20075;-85
2022/06/25 06:35:12;;;;;;;2.70;2.50;;;18.20;99.90;;;;;;4976829;28;20106;-87
2022/06/25 06:37:38;;;;;;;3.80;2.63;;;18.10;99.90;;;;;;4974206;28;20137;-87
2022/06/25 06:40:06;;;;;;;2.70;2.38;;;18.10;99.90;;;;;;4976094;28;20034;-88
2022/06/25 06:42:31;;;;;;;3.08;2.67;;;18.10;99.90;;;;;;4980143;28;20029;-86
2022/06/25 06:44:57;;;;;;;2.65;2.45;;;18.10;99.90;;;;;;4978531;28;20038;-86
2022/06/25 06:47:23;;;;;;;4.90;2.85;;;18.10;99.90;;;;;;4974912;28;20045;-85
2022/06/25 06:49:49;;;;;;;3.20;3.00;;;18.00;99.90;;;;;;4976381;28;20046;-86
2022/06/25 06:52:15;;;;;;;2.70;2.50;;;18.10;99.90;;;;;;4980736;28;20044;-87
2022/06/25 06:54:41;;;;;;;2.50;2.30;;;18.10;99.90;;;;;;4993336;28;20039;-86
2022/06/25 06:57:07;;;;;;;2.80;2.60;;;18.10;99.90;;;;;;4948957;28;20039;-86
2022/06/25 06:59:32;;;;;;;2.70;2.50;;;18.10;99.90;;;;;;4986893;28;20508;-89
2022/06/25 07:01:58;;;;;;;2.97;2.78;;;18.10;99.90;;;;;;4959430;28;20114;-89
2022/06/25 07:04:24;;;;;;;3.95;3.65;;;18.10;99.90;;;;;;4936492;28;20037;-88
2022/06/25 07:06:50;;;;;;;4.50;4.10;;;18.10;99.90;;;;;;4945692;28;20504;-87
2022/06/25 07:09:16;;;;;;;12.80;9.50;;;18.00;99.90;;;;;;4992427;28;20085;-87
2022/06/25 07:11:41;;;;;;;4.93;3.80;;;18.00;99.90;;;;;;4975782;28;20626;-88
2022/06/25 07:14:07;;;;;;;3.00;2.55;;;18.00;99.90;;;;;;4973603;28;20041;-88
2022/06/25 07:16:34;;;;;;;2.97;2.70;;;18.10;99.90;;;;;;4961559;28;20125;-87
2022/06/25 07:19:00;;;;;;;3.28;2.95;;;18.10;99.90;;;;;;4942000;28;20035;-88
2022/06/25 07:21:27;;;;;;;3.83;2.80;;;18.10;99.90;;;;;;4975769;28;20026;-85
2022/06/25 07:23:54;;;;;;;3.40;3.10;;;18.10;99.90;;;;;;4973856;28;20027;-87
2022/06/25 07:26:20;;;;;;;2.90;2.67;;;18.10;99.90;;;;;;4985446;28;20423;-88
2022/06/25 07:28:47;;;;;;;3.17;2.88;;;18.10;99.90;;;;;;4972265;28;20046;-83
2022/06/25 07:31:13;;;;;;;4.78;3.10;;;18.20;99.90;;;;;;4990327;28;20045;-86
2022/06/25 07:33:39;;;;;;;3.60;3.30;;;18.30;99.90;;;;;;4989473;28;20135;-86
2022/06/25 07:36:05;;;;;;;3.47;2.92;;;18.20;99.90;;;;;;4940072;28;20062;-88
2022/06/25 07:38:31;;;;;;;3.28;3.00;;;18.20;99.90;;;;;;4969926;28;20110;-84
2022/06/25 07:40:56;;;;;;;2.83;2.42;;;18.30;99.90;;;;;;4976250;28;20065;-86
2022/06/25 07:43:22;;;;;;;2.88;2.65;;;18.40;99.90;;;;;;4965665;28;20174;-86
2022/06/25 07:45:49;;;;;;;2.90;2.70;;;18.50;99.90;;;;;;4997995;28;20061;-85
2022/06/25 07:48:15;;;;;;;2.97;2.72;;;18.70;99.90;;;;;;4975020;28;20040;-86
2022/06/25 07:53:27;;;;;;;;;;;19.00;99.90;;;;;;4945108;28;20049;-86
2022/06/25 07:55:52;;;;;;;;;;;19.10;99.90;;;;;;4970783;28;19914;-86
2022/06/25 07:58:18;;;;;;;2.58;2.35;;;19.30;99.90;;;;;;4977528;28;19917;-86
2022/06/25 08:00:44;;;;;;;2.90;2.60;;;19.50;99.90;;;;;;4944047;28;20066;-86
2022/06/25 08:03:10;;;;;;;3.10;2.55;;;19.80;99.90;;;;;;4942612;28;20093;-86
2022/06/25 08:05:35;;;;;;;2.95;2.45;;;20.00;99.90;;;;;;4973361;28;20031;-85
2022/06/25 08:08:01;;;;;;;4.00;2.85;;;20.10;99.90;;;;;;4978052;28;20132;-86
2022/06/25 08:10:27;;;;;;;2.67;2.45;;;20.30;99.90;;;;;;4942007;28;20126;-86
2022/06/25 08:12:53;;;;;;;3.35;2.53;;;20.30;99.90;;;;;;4962862;28;20397;-87
2022/06/25 08:15:20;;;;;;;2.38;2.20;;;20.30;99.90;;;;;;4976501;28;20039;-85
2022/06/25 08:17:46;;;;;;;3.40;2.17;;;20.20;99.90;;;;;;4977423;28;20066;-86
2022/06/25 08:20:12;;;;;;;2.25;2.13;;;20.20;99.90;;;;;;4975233;28;20085;-86
2022/06/25 08:22:38;;;;;;;3.03;2.70;;;20.20;99.90;;;;;;4979724;28;20658;-86
2022/06/25 08:25:07;;;;;;;4.75;4.22;;;20.00;99.90;;;;;;4966448;28;20119;-87
2022/06/25 08:27:33;;;;;;;2.70;2.50;;;19.90;99.90;;;;;;4947507;28;20130;-86
2022/06/25 08:29:59;;;;;;;3.03;2.78;;;20.00;99.90;;;;;;4945642;28;20045;-87
2022/06/25 08:32:25;;;;;;;2.75;2.55;;;20.00;99.90;;;;;;4982835;28;20070;-86
2022/06/25 08:34:51;;;;;;;3.83;2.58;;;20.00;99.90;;;;;;4978365;28;20129;-86
2022/06/25 08:37:17;;;;;;;2.63;2.42;;;20.00;99.90;;;;;;4977153;28;20073;-86
2022/06/25 08:39:42;;;;;;;3.17;2.38;;;20.10;99.90;;;;;;4987800;28;20030;-86
2022/06/25 08:42:08;;;;;;;2.33;2.22;;;20.20;99.90;;;;;;4961771;28;20069;-86
2022/06/25 08:44:34;;;;;;;2.28;2.13;;;20.40;99.90;;;;;;4973841;28;20034;-86
2022/06/25 08:47:00;;;;;;;2.78;2.58;;;20.50;99.90;;;;;;4941737;28;20397;-87
2022/06/25 08:49:26;;;;;;;2.80;2.40;;;20.50;99.90;;;;;;4968253;28;20039;-86
2022/06/25 08:51:57;;;;;;;6.07;4.13;;;20.40;99.90;;;;;;4957317;28;20038;-87
2022/06/25 08:54:24;;;;;;;2.78;2.58;;;20.40;99.90;;;;;;4987154;28;20735;-87
2022/06/25 08:56:50;;;;;;;3.30;2.65;;;20.60;99.90;;;;;;4966858;28;20469;-87
2022/06/25 08:59:17;;;;;;;2.35;2.22;;;20.90;99.90;;;;;;4991264;28;20080;-88
2022/06/25 09:01:43;;;;;;;4.00;2.55;;;21.40;99.90;;;;;;4978978;28;20493;-87
2022/06/25 09:04:09;;;;;;;2.60;2.40;;;21.80;99.90;;;;;;4968388;28;20031;-88
2022/06/25 09:06:35;;;;;;;3.05;2.45;;;22.10;99.90;;;;;;4978714;28;20038;-86
2022/06/25 09:09:12;;;;;;;2.53;2.30;;;22.30;99.90;;;;;;4973608;28;20035;-87
2022/06/25 09:11:57;;;;;;;3.15;2.47;;;22.70;99.90;;;;;;4974661;28;20039;-87
2022/06/25 09:14:28;;;;;;;2.30;2.13;;;22.90;99.90;;;;;;4970563;28;20093;-88
2022/06/25 09:16:59;;;;;;;2.00;1.90;;;23.00;99.90;;;;;;4970395;28;20038;-87
2022/06/25 09:19:30;;;;;;;2.42;2.22;;;22.90;99.90;;;;;;4943869;28;20046;-88
2022/06/25 09:21:57;;;;;;;2.28;2.00;;;22.80;99.90;;;;;;4979227;28;20112;-89
2022/06/25 09:24:37;;;;;;;2.55;2.33;;;22.70;99.90;;;;;;4961247;28;20022;-88
2022/06/25 09:27:03;;;;;;;2.53;2.33;;;22.70;99.90;;;;;;4989420;28;20497;-88
2022/06/25 09:29:44;;;;;;;3.15;1.90;;;22.70;99.90;;;;;;4978096;28;20038;-88
2022/06/25 09:32:11;;;;;;;2.53;2.10;;;22.80;99.90;;;;;;4985320;28;20413;-87
2022/06/25 09:34:38;;;;;;;3.63;1.95;;;22.70;99.90;;;;;;4969170;28;20058;-86
2022/06/25 09:37:17;;;;;;;2.85;2.40;;;22.70;99.90;;;;;;4951333;28;20054;-86
2022/06/25 09:39:45;;;;;;;2.42;1.83;;;22.80;99.90;;;;;;4978321;28;20026;-86
2022/06/25 09:42:32;;;;;;;1.90;1.80;;;22.80;99.90;;;;;;4985628;28;20023;-87
2022/06/25 09:45:16;;;;;;;2.15;2.05;;;22.70;99.90;;;;;;4998030;28;20563;-86
2022/06/25 09:47:43;;;;;;;2.20;2.00;;;22.70;99.90;;;;;;4960745;28;20085;-87
2022/06/25 09:50:19;;;;;;;2.08;1.98;;;22.60;99.90;;;;;;4978958;28;20728;-86
2022/06/25 09:52:49;;;;;;;;;;;22.60;99.90;;;;;;4961844;28;20030;-87
2022/06/25 09:55:15;;;;;;;2.60;2.10;;;22.50;99.90;;;;;;4991630;28;20289;-86
2022/06/25 09:57:42;;;;;;;1.83;1.73;;;22.30;99.90;;;;;;4988626;28;20031;-87
2022/06/25 10:00:10;;;;;;;2.38;2.08;;;22.40;99.90;;;;;;4952256;28;20045;-87
2022/06/25 10:02:37;;;;;;;2.08;1.90;;;22.50;99.90;;;;;;4979152;28;20034;-87
2022/06/25 10:05:04;;;;;;;2.13;2.00;;;22.70;99.90;;;;;;4987256;28;20500;-88
2022/06/25 10:10:20;;;;;;;2.73;2.53;;;22.80;99.90;;;;;;4988127;28;20049;-87
2022/06/25 10:12:47;;;;;;;2.45;2.00;;;22.80;99.90;;;;;;4964128;28;20327;-87
2022/06/25 10:15:19;;;;;;;1.80;1.70;;;23.00;99.90;;;;;;4971245;28;20037;-87
2022/06/25 10:17:51;;;;;;;2.10;1.90;;;23.10;99.90;;;;;;4989854;28;20034;-88
2022/06/25 10:20:18;;;;;;;2.35;1.90;;;23.30;99.90;;;;;;4972713;28;20448;-87
2022/06/25 10:22:46;;;;;;;2.30;1.80;;;23.40;99.90;;;;;;4971296;28;20137;-88
2022/06/25 10:25:19;;;;;;;2.55;1.80;;;23.60;99.90;;;;;;4946790;28;20505;-88
2022/06/25 10:27:47;;;;;;;1.65;1.55;;;23.50;99.90;;;;;;4957674;28;20564;-87
2022/06/25 10:30:14;;;;;;;2.10;1.90;;;23.50;99.90;;;;;;4984805;28;20031;-87
2022/06/25 10:32:46;;;;;;;1.65;1.55;;;23.60;99.90;;;;;;4966862;28;20046;-88
2022/06/25 10:35:33;;;;;;;1.55;1.45;;;23.60;99.90;;;;;;4958754;28;20132;-87
2022/06/25 10:38:09;;;;;;;1.58;1.48;;;23.70;99.90;;;;;;4980486;28;20037;-88
2022/06/25 10:40:53;;;;;;;;;;;23.70;99.90;;;;;;4988524;28;20027;-87
2022/06/25 10:43:46;;;;;;;2.42;1.30;;;23.80;99.90;;;;;;4963611;28;19975;-88
2022/06/25 10:46:31;;;;;;;1.60;1.50;;;23.90;99.90;;;;;;4961277;28;20509;-88
2022/06/25 10:49:08;;;;;;;1.70;1.60;;;23.60;99.90;;;;;;4989920;28;20072;-88
2022/06/25 10:51:54;;;;;;;1.40;1.30;;;23.40;99.90;;;;;;4967112;28;20309;-88
2022/06/25 10:54:23;;;;;;;1.58;1.48;;;23.30;99.90;;;;;;4972252;28;20039;-88
2022/06/25 10:56:58;;;;;;;1.95;1.77;;;23.10;99.90;;;;;;4995543;28;20038;-88
2022/06/25 10:59:36;;;;;;;1.98;1.88;;;23.10;99.90;;;;;;4949471;28;20035;-88
2022/06/25 11:02:10;;;;;;;1.80;1.70;;;23.10;99.90;;;;;;4969891;28;20038;-88
2022/06/25 11:04:37;;;;;;;1.63;1.52;;;23.30;99.90;;;;;;4968044;28;20031;-90
2022/06/25 11:07:15;;;;;;;2.47;1.42;;;23.50;99.90;;;;;;4982959;28;20022;-86
2022/06/25 11:09:55;;;;;;;1.50;1.40;;;23.50;99.90;;;;;;4993182;28;20408;-88
2022/06/25 11:12:22;;;;;;;1.40;1.30;;;23.60;99.90;;;;;;4976041;28;20034;-87
2022/06/25 11:15:05;;;;;;;3.58;1.60;;;23.70;99.90;;;;;;4975206;28;20092;-89
2022/06/25 11:17:31;;;;;;;1.70;1.60;;;24.00;99.90;;;;;;4994646;28;20129;-88
2022/06/25 11:20:08;;;;;;;1.75;1.65;;;24.20;99.90;;;;;;4983066;28;20039;-87
2022/06/25 11:22:44;;;;;;;1.63;1.40;;;24.40;99.90;;;;;;4983476;28;20449;-88
2022/06/25 11:30:39;;;;;;;2.72;1.27;;;24.70;99.90;;;;;;4980234;28;20496;-87
2022/06/25 11:33:09;;;;;;;1.30;1.30;;;24.70;95.20;;;;;;4977990;28;20057;-86
2022/06/25 11:35:44;;;;;;;1.10;1.10;;;24.70;96.20;;;;;;4968923;28;20026;-87
2022/06/25 11:38:27;;;;;;;3.03;1.60;;;24.70;96.20;;;;;;4973268;28;20473;-87
2022/06/25 11:40:53;;;;;;;1.55;1.45;;;24.80;99.90;;;;;;4956055;28;20117;-87
2022/06/25 11:43:19;;;;;;;1.30;1.20;;;25.00;99.40;;;;;;4978337;28;20089;-88
2022/06/25 11:46:13;;;;;;;1.58;1.30;;;25.00;95.50;;;;;;4968597;28;20029;-87
2022/06/25 11:48:39;;;;;;;1.42;1.20;;;25.20;97.90;;;;;;4969903;28;20043;-87
2022/06/25 11:51:05;;;;;;;1.30;1.20;;;25.30;97.70;;;;;;4971939;28;20033;-89
2022/06/25 11:53:34;;;;;;;1.40;1.38;;;25.50;98.90;;;;;;4974660;28;20045;-87
2022/06/25 11:56:02;;;;;;;2.03;1.38;;;25.80;98.70;;;;;;4981551;28;20072;-86
2022/06/25 11:58:31;;;;;;;1.60;1.23;;;26.10;95.60;;;;;;4987194;28;20077;-89
2022/06/25 12:00:59;;;;;;;1.42;1.33;;;26.30;96.00;;;;;;4961282;28;20029;-86
2022/06/25 12:03:27;;;;;;;1.10;1.10;;;26.30;93.70;;;;;;4941184;28;20378;-89
2022/06/25 12:05:55;;;;;;;1.98;1.30;;;26.20;94.00;;;;;;4984630;28;20083;-87
2022/06/25 12:08:22;;;;;;;1.33;1.23;;;26.10;89.90;;;;;;4995040;28;20035;-86
2022/06/25 12:10:49;;;;;;;1.42;1.20;;;26.00;92.90;;;;;;4992980;28;20036;-88
2022/06/25 12:13:15;;;;;;;1.20;1.10;;;26.00;91.60;;;;;;4993432;28;20057;-86
2022/06/25 12:15:41;;;;;;;1.45;1.20;;;26.20;94.60;;;;;;4973743;28;20042;-88
2022/06/25 12:18:07;;;;;;;1.42;1.33;;;26.40;92.30;;;;;;4954548;28;20382;-88
2022/06/25 12:20:34;;;;;;;1.02;1.02;;;26.60;91.50;;;;;;4959241;28;20026;-87
2022/06/25 12:23:02;;;;;;;1.30;1.20;;;26.40;90.70;;;;;;4973522;28;20058;-87
2022/06/25 12:25:33;;;;;;;1.60;1.50;;;26.40;91.20;;;;;;4978346;28;20068;-87
2022/06/25 12:27:59;;;;;;;1.35;1.30;;;26.30;86.50;;;;;;4986450;28;20093;-88
2022/06/25 12:30:25;;;;;;;1.50;1.40;;;26.30;87.50;;;;;;4976814;28;20038;-85
2022/06/25 12:32:52;;;;;;;1.50;1.40;;;26.30;90.00;;;;;;4983134;28;20088;-87
2022/06/25 12:35:23;;;;;;;1.25;1.20;;;26.70;91.40;;;;;;4975960;28;20469;-88
2022/06/25 12:38:06;;;;;;;1.50;1.40;;;27.40;91.60;;;;;;4979856;28;20031;-86
2022/06/25 12:40:38;;;;;;;1.65;1.38;;;27.90;77.90;;;;;;4983807;28;20410;-85
2022/06/25 12:43:06;;;;;;;1.15;1.15;;;28.20;82.20;;;;;;4976649;28;20040;-86
2022/06/25 12:45:33;;;;;;;1.48;1.38;;;28.60;85.10;;;;;;4981533;28;20097;-86
2022/06/25 12:47:59;;;;;;;1.17;1.17;;;28.30;72.20;;;;;;4987884;28;20453;-86
2022/06/25 12:50:31;;;;;;;1.30;1.30;;;28.20;79.80;;;;;;4977214;28;20034;-86
2022/06/25 12:53:11;;;;;;;2.08;1.30;;;28.30;82.10;;;;;;4995217;28;20030;-87
2022/06/25 12:55:39;;;;;;;1.83;1.33;;;28.10;77.20;;;;;;4995208;28;20098;-88
2022/06/25 12:58:06;;;;;;;1.40;1.30;;;27.80;79.90;;;;;;4992716;28;20149;-88
2022/06/25 13:00:34;;;;;;;1.48;1.38;;;27.40;77.90;;;;;;5006461;28;20030;-86
2022/06/25 13:03:00;;;;;;;1.42;1.33;;;27.30;79.20;;;;;;4980349;28;20015;-86
2022/06/25 13:05:26;;;;;;;2.00;1.40;;;27.40;76.50;;;;;;4971551;28;20041;-87
2022/06/25 13:07:52;;;;;;;1.10;1.10;;;27.40;72.30;;;;;;4986244;28;20037;-88
2022/06/25 13:10:18;;;;;;;0.90;0.90;;;27.80;78.90;;;;;;4958615;28;20066;-88
2022/06/25 13:12:43;;;;;;;0.93;0.93;;;28.40;76.10;;;;;;4977234;28;20039;-89
2022/06/25 13:15:10;;;;;;;1.95;1.17;;;29.10;74.00;;;;;;4976020;28;20038;-87
2022/06/25 13:17:36;;;;;;;1.13;1.02;;;29.70;70.00;;;;;;4977555;28;20037;-88